KAIK

Details ICAO KAIK (AIK)
Name Aiken Muni
Region United States
Timezone America/New_York (UTC-5.0)
Plans Departing 3
Arriving 3
Stats Elevation 528 ft / 161 m (AMSL)
Location 33.649279° -81.684389°
Runways 2
Magnetic Variation 6.948° W
Sunrise 2017-12-16 12:26:04 UTC / 2017-12-16 07:26:04 Local
Sunset 2017-12-16 22:21:40 UTC / 2017-12-16 17:21:40 Local
Advertisement - Login to hide

Runways

ID Width Length Bearing (true) Bearing (mag) Surface Threshold Offset Overrun Length
06 100 ft / 30 m 5,496 ft / 1,675 m 60.21° 67.16° Asphalt 0 ft / 0 m 0 ft / 0 m
18 75 ft / 23 m 3,809 ft / 1,161 m 180.37° 187.32° Asphalt 0 ft / 0 m 0 ft / 0 m
24 100 ft / 30 m 5,496 ft / 1,675 m 240.22° 247.17° Asphalt 0 ft / 0 m 0 ft / 0 m
36 75 ft / 23 m 3,809 ft / 1,161 m 0.37° 7.32° Asphalt 0 ft / 0 m 0 ft / 0 m

Map

Weather


0- 5 10 15 20 25 30 35+ Temperature / ° C

Clouds and Precipitation
Forecast for 2017-12-17 00:00 UTC. Updated 2 hours ago

Ground ~20,000 ft ~40,000 ft Winds

METAR

KAIK 162035Z AUTO 20004KT 10SM CLR 10/M03 A3027 RMK AO2

TAF

Not found

Frequencies

Recorded 118.02 MHz AWOS 3
Approach 119.15 MHz AUGUSTA APP/DEP
Unicom 122.80 MHz CTAF/UNICOM
Warning: Do not use this data for real-world aviation or navigation. No guarantee of current accuracy is given.